Time,TemperatureF,DewpointF,PressureIn,WindDirection,WindDirectionDegrees,WindSpeedMPH,WindSpeedGustMPH,Humidity,HourlyPrecipIn,Conditions,Clouds,dailyrainin,SoftwareType,DateUTC
2013-05-15 00:03:00,77.2,59.3,29.46,West,270,0.0,3.0,54,0.00,,,-99.99,WeatherLink 5.7,2013-05-15 05:03:00,
2013-05-15 00:18:00,76.7,58.8,29.46,West,270,0.0,6.0,54,0.00,,,-99.99,WeatherLink 5.7,2013-05-15 05:18:00,
2013-05-15 00:33:00,76.1,58.8,29.46,WSW,247,0.0,6.0,55,0.00,,,-99.99,WeatherLink 5.7,2013-05-15 05:33:00,
2013-05-15 00:49:00,75.8,58.0,29.45,SSW,202,0.0,4.0,54,0.00,,,-99.99,WeatherLink 5.7,2013-05-15 05:49:00,
2013-05-15 01:03:00,75.6,57.8,29.46,WSW,247,1.0,10.0,54,0.00,,,-99.99,WeatherLink 5.7,2013-05-15 06:03:00,
2013-05-15 01:18:00,75.4,57.1,29.46,WSW,247,1.0,11.0,53,0.00,,,-99.99,WeatherLink 5.7,2013-05-15 06:18:00,
2013-05-15 01:33:00,75.3,57.5,29.46,West,270,1.0,11.0,54,0.00,,,-99.99,WeatherLink 5.7,2013-05-15 06:33:00,
2013-05-15 01:48:00,75.3,57.5,29.46,West,270,3.0,12.0,54,0.00,,,-99.99,WeatherLink 5.7,2013-05-15 06:48:00,
2013-05-15 02:03:00,75.4,57.1,29.46,WSW,247,6.0,15.0,53,0.00,,,-99.99,WeatherLink 5.7,2013-05-15 07:03:00,
2013-05-15 02:19:00,74.7,56.9,29.46,WSW,247,5.0,14.0,54,0.00,,,-99.99,WeatherLink 5.7,2013-05-15 07:19:00,
2013-05-15 02:33:00,74.0,57.3,29.46,WSW,247,4.0,12.0,56,0.00,,,-99.99,WeatherLink 5.7,2013-05-15 07:33:00,
2013-05-15 02:48:00,73.2,57.1,29.47,West,270,4.0,14.0,57,0.00,,,-99.99,WeatherLink 5.7,2013-05-15 07:48:00,
2013-05-15 03:03:00,72.7,56.6,29.48,West,270,3.0,10.0,57,0.00,,,-99.99,WeatherLink 5.7,2013-05-15 08:03:00,
2013-05-15 03:18:00,72.0,56.9,29.49,West,270,3.0,11.0,59,0.00,,,-99.99,WeatherLink 5.7,2013-05-15 08:18:00,
2013-05-15 03:33:00,71.1,56.0,29.49,West,270,1.0,10.0,59,0.00,,,-99.99,WeatherLink 5.7,2013-05-15 08:33:00,
2013-05-15 03:48:00,69.9,54.9,29.50,NW,315,0.0,7.0,59,0.00,,,-99.99,WeatherLink 5.7,2013-05-15 08:48:00,
2013-05-15 04:04:00,69.4,53.5,29.50,WSW,247,0.0,6.0,57,0.00,,,-99.99,WeatherLink 5.7,2013-05-15 09:04:00,
2013-05-15 04:18:00,69.1,51.8,29.51,West,270,1.0,6.0,54,0.00,,,-99.99,WeatherLink 5.7,2013-05-15 09:18:00,
2013-05-15 04:33:00,68.3,51.0,29.53,West,270,0.0,3.0,54,0.00,,,-99.99,WeatherLink 5.7,2013-05-15 09:33:00,
2013-05-15 04:48:00,67.1,51.4,29.53,West,270,0.0,1.0,57,0.00,,,-99.99,WeatherLink 5.7,2013-05-15 09:48:00,
2013-05-15 05:03:00,64.5,51.2,29.54,West,270,0.0,4.0,62,0.00,,,-99.99,WeatherLink 5.7,2013-05-15 10:03:00,
2013-05-15 05:18:00,65.2,51.0,29.54,West,270,1.0,4.0,60,0.00,,,-99.99,WeatherLink 5.7,2013-05-15 10:18:00,
2013-05-15 05:33:00,65.5,50.3,29.55,West,270,1.0,7.0,58,0.00,,,-99.99,WeatherLink 5.7,2013-05-15 10:33:00,
2013-05-15 05:48:00,65.6,48.5,29.56,WSW,247,1.0,9.0,54,0.00,,,-99.99,WeatherLink 5.7,2013-05-15 10:48:00,
2013-05-15 06:03:00,65.5,47.4,29.57,WSW,247,2.0,9.0,52,0.00,,,-99.99,WeatherLink 5.7,2013-05-15 11:03:00,
2013-05-15 06:18:00,65.5,46.4,29.58,WSW,247,1.0,9.0,50,0.00,,,-99.99,WeatherLink 5.7,2013-05-15 11:18:00,
2013-05-15 06:34:00,65.0,45.4,29.59,WSW,247,1.0,7.0,49,0.00,,,-99.99,WeatherLink 5.7,2013-05-15 11:34:00,
2013-05-15 06:48:00,65.3,45.1,29.60,WSW,247,1.0,9.0,48,0.00,,,-99.99,WeatherLink 5.7,2013-05-15 11:48:00,
2013-05-15 07:03:00,65.6,45.4,29.61,West,270,1.0,10.0,48,0.00,,,-99.99,WeatherLink 5.7,2013-05-15 12:03:00,
2013-05-15 07:18:00,66.0,45.7,29.62,West,270,1.0,10.0,48,0.00,,,-99.99,WeatherLink 5.7,2013-05-15 12:18:00,
2013-05-15 07:33:00,66.6,46.8,29.62,West,270,3.0,11.0,49,0.00,,,-99.99,WeatherLink 5.7,2013-05-15 12:33:00,
2013-05-15 07:49:00,67.1,46.2,29.64,West,270,2.0,14.0,47,0.00,,,-99.99,WeatherLink 5.7,2013-05-15 12:49:00,
2013-05-15 08:00:00,67.9,48.0,29.64,West,270,2.0,13.0,49,0.00,,,-99.99,WeatherLink 5.7,2013-05-15 13:00:00,
2013-05-15 08:19:00,68.6,47.6,29.64,West,270,2.0,14.0,47,0.00,,,-99.99,WeatherLink 5.7,2013-05-15 13:19:00,
2013-05-15 08:34:00,69.4,48.9,29.66,West,270,0.0,6.0,48,0.00,,,-99.99,WeatherLink 5.7,2013-05-15 13:34:00,
2013-05-15 08:45:00,69.8,48.1,29.67,WNW,292,0.0,7.0,46,0.00,,,-99.99,WeatherLink 5.7,2013-05-15 13:45:00,
2013-05-15 09:04:00,70.8,47.8,29.67,NNW,337,1.0,9.0,44,0.00,,,-99.99,WeatherLink 5.7,2013-05-15 14:04:00,
2013-05-15 09:18:00,71.6,49.1,29.67,NNW,337,1.0,5.0,45,0.00,,,-99.99,WeatherLink 5.7,2013-05-15 14:18:00,
2013-05-15 09:34:00,72.1,50.2,29.67,NNW,337,1.0,5.0,46,0.00,,,-99.99,WeatherLink 5.7,2013-05-15 14:34:00,
2013-05-15 09:49:00,72.7,50.1,29.68,NNW,337,0.0,6.0,45,0.00,,,-99.99,WeatherLink 5.7,2013-05-15 14:49:00,
2013-05-15 10:03:00,73.7,51.0,29.68,NNW,337,0.0,5.0,45,0.00,,,-99.99,WeatherLink 5.7,2013-05-15 15:03:00,
2013-05-15 10:19:00,73.7,50.4,29.69,NNW,337,1.0,9.0,44,0.00,,,-99.99,WeatherLink 5.7,2013-05-15 15:19:00,
2013-05-15 10:34:00,74.0,51.3,29.69,NW,315,1.0,7.0,45,0.00,,,-99.99,WeatherLink 5.7,2013-05-15 15:34:00,
2013-05-15 10:48:00,74.4,51.1,29.69,NNW,337,1.0,6.0,44,0.00,,,-99.99,WeatherLink 5.7,2013-05-15 15:48:00,
2013-05-15 11:03:00,75.1,52.3,29.70,NW,315,0.0,6.0,45,0.00,,,-99.99,WeatherLink 5.7,2013-05-15 16:03:00,
2013-05-15 11:19:00,75.3,50.0,29.70,NNW,337,1.0,5.0,41,0.00,,,-99.99,WeatherLink 5.7,2013-05-15 16:19:00,
2013-05-15 11:34:00,74.9,48.9,29.69,NNW,337,0.0,5.0,40,0.00,,,-99.99,WeatherLink 5.7,2013-05-15 16:34:00,
2013-05-15 11:48:00,76.1,45.7,29.69,NW,315,0.0,5.0,34,0.00,,,-99.99,WeatherLink 5.7,2013-05-15 16:48:00,
2013-05-15 12:03:00,77.7,45.5,29.69,NNE,22,0.0,10.0,32,0.00,,,-99.99,WeatherLink 5.7,2013-05-15 17:03:00,
2013-05-15 12:15:00,77.4,45.2,29.69,North,0,0.0,6.0,32,0.00,,,-99.99,WeatherLink 5.7,2013-05-15 17:15:00,
2013-05-15 12:33:00,77.7,47.1,29.69,NW,315,0.0,7.0,34,0.00,,,-99.99,WeatherLink 5.7,2013-05-15 17:33:00,
2013-05-15 12:48:00,78.3,48.4,29.70,NNW,337,0.0,4.0,35,0.00,,,-99.99,WeatherLink 5.7,2013-05-15 17:48:00,
2013-05-15 13:04:00,78.3,49.1,29.70,NNW,337,1.0,5.0,36,0.00,,,-99.99,WeatherLink 5.7,2013-05-15 18:04:00,
2013-05-15 13:18:00,78.6,47.1,29.70,NW,315,0.0,5.0,33,0.00,,,-99.99,WeatherLink 5.7,2013-05-15 18:18:00,
2013-05-15 13:34:00,78.6,41.8,29.70,NW,315,1.0,5.0,27,0.00,,,-99.99,WeatherLink 5.7,2013-05-15 18:34:00,
2013-05-15 13:48:00,77.9,47.3,29.70,West,270,2.0,10.0,34,0.00,,,-99.99,WeatherLink 5.7,2013-05-15 18:48:00,
2013-05-15 14:04:00,78.8,43.8,29.69,NNW,337,1.0,7.0,29,0.00,,,-99.99,WeatherLink 5.7,2013-05-15 19:04:00,
2013-05-15 14:18:00,80.1,45.9,29.68,WNW,292,1.0,5.0,30,0.00,,,-99.99,WeatherLink 5.7,2013-05-15 19:18:00,
2013-05-15 14:33:00,78.6,42.8,29.68,West,270,2.0,9.0,28,0.00,,,-99.99,WeatherLink 5.7,2013-05-15 19:33:00,
2013-05-15 14:48:00,79.6,42.7,29.67,West,270,2.0,9.0,27,0.00,,,-99.99,WeatherLink 5.7,2013-05-15 19:48:00,
2013-05-15 15:04:00,79.0,44.9,29.67,West,270,2.0,11.0,30,0.00,,,-99.99,WeatherLink 5.7,2013-05-15 20:04:00,
2013-05-15 15:18:00,78.8,42.9,29.67,WSW,247,1.0,8.0,28,0.00,,,-99.99,WeatherLink 5.7,2013-05-15 20:18:00,
2013-05-15 15:33:00,80.1,43.1,29.67,SW,225,0.0,5.0,27,0.00,,,-99.99,WeatherLink 5.7,2013-05-15 20:33:00,
2013-05-15 15:49:00,81.2,43.0,29.67,WSW,247,1.0,5.0,26,0.00,,,-99.99,WeatherLink 5.7,2013-05-15 20:49:00,
2013-05-15 16:03:00,80.9,44.7,29.67,WNW,292,1.0,5.0,28,0.00,,,-99.99,WeatherLink 5.7,2013-05-15 21:03:00,
2013-05-15 16:19:00,80.5,44.4,29.67,West,270,2.0,10.0,28,0.00,,,-99.99,WeatherLink 5.7,2013-05-15 21:19:00,
2013-05-15 16:33:00,80.3,44.2,29.66,West,270,2.0,10.0,28,0.00,,,-99.99,WeatherLink 5.7,2013-05-15 21:33:00,
2013-05-15 16:48:00,80.3,44.2,29.66,West,270,2.0,9.0,28,0.00,,,-99.99,WeatherLink 5.7,2013-05-15 21:48:00,
2013-05-15 17:04:00,80.9,44.7,29.66,West,270,1.0,10.0,28,0.00,,,-99.99,WeatherLink 5.7,2013-05-15 22:04:00,
2013-05-15 17:20:00,80.7,43.6,29.65,WNW,292,1.0,10.0,27,0.00,,,-99.99,WeatherLink 5.7,2013-05-15 22:20:00,
2013-05-15 17:33:00,78.8,42.9,29.65,WSW,247,1.0,7.0,28,0.00,,,-99.99,WeatherLink 5.7,2013-05-15 22:33:00,
2013-05-15 17:45:00,77.9,43.1,29.65,WSW,247,0.0,5.0,29,0.00,,,-99.99,WeatherLink 5.7,2013-05-15 22:45:00,
2013-05-15 18:03:00,77.7,44.6,29.65,WSW,247,0.0,5.0,31,0.00,,,-99.99,WeatherLink 5.7,2013-05-15 23:03:00,
2013-05-15 18:18:00,77.4,44.4,29.65,West,270,0.0,4.0,31,0.00,,,-99.99,WeatherLink 5.7,2013-05-15 23:18:00,
2013-05-15 18:34:00,76.5,44.4,29.65,WNW,292,0.0,4.0,32,0.00,,,-99.99,WeatherLink 5.7,2013-05-15 23:34:00,
2013-05-15 18:48:00,76.1,44.1,29.66,WNW,292,0.0,1.0,32,0.00,,,-99.99,WeatherLink 5.7,2013-05-15 23:48:00,
2013-05-15 19:03:00,75.8,47.7,29.66,WNW,292,0.0,1.0,37,0.00,,,-99.99,WeatherLink 5.7,2013-05-16 00:03:00,
2013-05-15 19:19:00,75.4,47.3,29.66,WNW,292,0.0,1.0,37,0.00,,,-99.99,WeatherLink 5.7,2013-05-16 00:19:00,
2013-05-15 19:33:00,74.9,47.6,29.67,WNW,292,0.0,1.0,38,0.00,,,-99.99,WeatherLink 5.7,2013-05-16 00:33:00,
2013-05-15 19:48:00,74.4,48.5,29.68,WNW,292,0.0,1.0,40,0.00,,,-99.99,WeatherLink 5.7,2013-05-16 00:48:00,
2013-05-15 20:03:00,73.5,47.0,29.68,WNW,292,0.0,1.0,39,0.00,,,-99.99,WeatherLink 5.7,2013-05-16 01:03:00,
2013-05-15 20:19:00,71.8,48.7,29.68,North,-999,0.0,0.0,44,0.00,,,-99.99,WeatherLink 5.7,2013-05-16 01:19:00,
2013-05-15 20:30:00,70.8,48.4,29.68,North,-999,0.0,0.0,45,0.00,,,-99.99,WeatherLink 5.7,2013-05-16 01:30:00,
2013-05-15 20:49:00,69.1,48.6,29.69,WNW,292,0.0,1.0,48,0.00,,,-99.99,WeatherLink 5.7,2013-05-16 01:49:00,
2013-05-15 21:03:00,68.1,48.8,29.70,North,-999,0.0,0.0,50,0.00,,,-99.99,WeatherLink 5.7,2013-05-16 02:03:00,
2013-05-15 21:18:00,67.1,48.4,29.71,WNW,292,0.0,1.0,51,0.00,,,-99.99,WeatherLink 5.7,2013-05-16 02:18:00,
2013-05-15 21:34:00,66.6,47.9,29.72,WNW,292,0.0,1.0,51,0.00,,,-99.99,WeatherLink 5.7,2013-05-16 02:34:00,
2013-05-15 21:49:00,66.4,47.7,29.72,North,-999,0.0,0.0,51,0.00,,,-99.99,WeatherLink 5.7,2013-05-16 02:49:00,
2013-05-15 22:04:00,65.5,47.4,29.72,North,-999,0.0,0.0,52,0.00,,,-99.99,WeatherLink 5.7,2013-05-16 03:04:00,
2013-05-15 22:18:00,64.0,48.0,29.72,North,-999,0.0,0.0,56,0.00,,,-99.99,WeatherLink 5.7,2013-05-16 03:18:00,
2013-05-15 22:34:00,62.6,47.6,29.71,North,-999,0.0,0.0,58,0.00,,,-99.99,WeatherLink 5.7,2013-05-16 03:34:00,
2013-05-15 22:49:00,61.3,47.3,29.72,North,-999,0.0,0.0,60,0.00,,,-99.99,WeatherLink 5.7,2013-05-16 03:49:00,
2013-05-15 23:03:00,60.2,48.0,29.72,North,-999,0.0,0.0,64,0.00,,,-99.99,WeatherLink 5.7,2013-05-16 04:03:00,
2013-05-15 23:18:00,59.6,47.8,29.71,North,-999,0.0,0.0,65,0.00,,,-99.99,WeatherLink 5.7,2013-05-16 04:18:00,
2013-05-15 23:33:00,58.4,47.5,29.71,North,-999,0.0,0.0,67,0.00,,,-99.99,WeatherLink 5.7,2013-05-16 04:33:00,
2013-05-15 23:48:00,58.1,48.4,29.71,North,-999,0.0,0.0,70,0.00,,,-99.99,WeatherLink 5.7,2013-05-16 04:48:00,